createdAt,value
2019-04-26T00:01:18.285Z,100872.20
2019-04-26T00:03:48.569Z,100873.18
2019-04-26T00:06:18.744Z,100883.45
2019-04-26T00:08:53.574Z,100877.78
2019-04-26T00:11:41.620Z,100867.87
2019-04-26T00:14:31.936Z,100870.08
2019-04-26T00:17:09.233Z,100858.95
2019-04-26T00:19:39.805Z,100862.50
2019-04-26T00:22:10.701Z,100874.23
2019-04-26T00:24:41.530Z,100877.78
2019-04-26T00:27:11.426Z,100872.59
2019-04-26T00:29:41.194Z,100876.52
2019-04-26T00:32:12.143Z,100865.76
2019-04-26T00:34:42.524Z,100872.97
2019-04-26T00:37:13.153Z,100862.20
2019-04-26T00:39:43.682Z,100871.14
2019-04-26T00:42:14.606Z,100861.34
2019-04-26T00:44:44.626Z,100863.18
2019-04-26T00:47:15.249Z,100870.36
2019-04-26T00:49:44.972Z,100869.80
2019-04-26T00:52:15.731Z,100864.13
2019-04-26T00:54:45.421Z,100865.46
2019-04-26T00:57:15.992Z,100862.77
2019-04-26T00:59:45.670Z,100862.89
2019-04-26T01:02:40.584Z,100866.81
2019-04-26T01:05:10.363Z,100869.98
2019-04-26T01:07:40.828Z,100887.47
2019-04-26T01:10:10.434Z,100894.69
2019-04-26T01:12:40.864Z,100897.86
2019-04-26T01:15:10.508Z,100892.94
2019-04-26T01:17:40.219Z,100899.66
2019-04-26T01:20:10.077Z,100905.05
2019-04-26T01:22:43.211Z,100902.46
2019-04-26T01:25:40.811Z,100907.84
2019-04-26T01:28:14.309Z,100906.50
2019-04-26T01:30:44.017Z,100902.95
2019-04-26T01:33:13.838Z,100898.91
2019-04-26T01:35:43.660Z,100906.98
2019-04-26T01:38:15.009Z,100907.92
2019-04-26T01:40:46.275Z,100911.09
2019-04-26T01:43:24.877Z,100908.41
2019-04-26T01:45:59.143Z,100908.03
2019-04-26T01:48:43.747Z,100913.71
2019-04-26T01:51:16.228Z,100910.23
2019-04-26T01:53:46.565Z,100913.79
2019-04-26T01:56:16.273Z,100912.07
2019-04-26T01:58:46.123Z,100914.16
2019-04-26T02:01:25.778Z,100908.97
2019-04-26T02:03:55.847Z,100912.52
2019-04-26T02:06:31.265Z,100909.75
2019-04-26T02:08:56.983Z,100912.52
2019-04-26T02:11:26.823Z,100913.49
2019-04-26T02:13:56.513Z,100910.43
2019-04-26T02:16:27.005Z,100906.77
2019-04-26T02:18:56.979Z,100899.67
2019-04-26T02:21:31.969Z,100894.29
2019-04-26T02:24:26.514Z,100895.63
2019-04-26T02:26:56.581Z,100894.74
2019-04-26T02:29:27.055Z,100903.78
2019-04-26T02:31:59.868Z,100902.92
2019-04-26T02:34:31.223Z,100906.09
2019-04-26T02:37:02.410Z,100909.16
2019-04-26T02:39:37.667Z,100909.65
2019-04-26T02:42:18.957Z,100908.30
2019-04-26T02:45:06.333Z,100917.72
2019-04-26T02:47:55.126Z,100914.25
2019-04-26T02:50:40.211Z,100912.42
2019-04-26T02:53:22.575Z,100918.28
2019-04-26T02:56:13.798Z,100916.45
2019-04-26T02:58:51.550Z,100912.91
2019-04-26T03:01:21.691Z,100912.50
2019-04-26T03:03:53.590Z,100908.01
2019-04-26T03:06:22.737Z,100906.22
2019-04-26T03:08:52.498Z,100909.81
2019-04-26T03:11:23.230Z,100907.20
2019-04-26T03:14:17.804Z,100908.05
2019-04-26T03:17:03.219Z,100904.51
2019-04-26T03:19:51.254Z,100909.48
2019-04-26T03:22:43.106Z,100913.44
2019-04-26T03:25:19.770Z,100919.30
2019-04-26T03:27:58.286Z,100925.61
2019-04-26T03:30:38.207Z,100938.13
2019-04-26T03:33:18.210Z,100934.17
2019-04-26T03:36:19.432Z,100939.55
2019-04-26T03:39:28.092Z,100944.93
2019-04-26T03:42:29.618Z,100961.93
2019-04-26T03:45:51.543Z,100960.77
2019-04-26T03:49:04.583Z,100953.56
2019-04-26T03:52:28.335Z,100954.34
2019-04-26T03:55:01.318Z,100950.42
2019-04-26T03:57:46.213Z,100940.70
2019-04-26T04:00:39.502Z,100946.95
2019-04-26T04:03:43.076Z,100953.27
2019-04-26T04:06:15.533Z,100964.92
2019-04-26T04:08:49.293Z,100972.50
2019-04-26T04:11:21.389Z,100981.05
2019-04-26T04:13:59.025Z,100986.44
2019-04-26T04:16:58.004Z,100986.88
2019-04-26T04:20:14.334Z,100973.44
2019-04-26T04:22:45.877Z,100977.02
2019-04-26T04:25:20.909Z,100969.89
2019-04-26T04:27:57.916Z,100962.79
2019-04-26T04:31:13.456Z,100960.95
2019-04-26T04:34:06.506Z,100964.62
2019-04-26T04:36:44.093Z,100964.13
2019-04-26T04:39:42.050Z,100969.52
2019-04-26T04:43:00.878Z,100969.02
2019-04-26T04:46:01.695Z,100973.06
2019-04-26T04:48:51.149Z,100975.45
2019-04-26T04:54:23.748Z,100981.69
2019-04-26T04:57:13.274Z,100992.45
2019-04-26T04:59:59.439Z,100994.20
2019-04-26T05:02:57.253Z,100985.34
2019-04-26T05:06:06.931Z,100977.77
2019-04-26T05:08:48.878Z,100979.97
2019-04-26T05:11:25.796Z,100990.73
2019-04-26T05:14:11.008Z,100988.52
2019-04-26T05:17:18.731Z,100992.08
2019-04-26T05:20:08.918Z,100993.49
2019-04-26T05:23:37.044Z,101002.91
2019-04-26T05:27:00.739Z,101010.11
2019-04-26T05:29:56.133Z,101034.69
2019-04-26T05:33:19.130Z,101034.80
2019-04-26T05:36:18.951Z,101041.11
2019-04-26T05:39:07.037Z,101038.84
2019-04-26T05:42:19.744Z,101040.18
2019-04-26T05:45:37.215Z,101048.62
2019-04-26T05:48:32.937Z,101051.80
2019-04-26T05:51:35.255Z,101049.59
2019-04-26T05:55:10.882Z,101050.45
2019-04-26T05:58:07.916Z,101044.59
2019-04-26T06:01:13.874Z,101042.87
2019-04-26T06:04:31.622Z,101050.45
2019-04-26T06:07:12.220Z,101047.77
2019-04-26T06:10:01.285Z,101047.77
2019-04-26T06:12:43.763Z,101041.53
2019-04-26T06:15:41.663Z,101038.35
2019-04-26T06:18:30.621Z,101027.59
2019-04-26T06:21:32.670Z,101035.66
2019-04-26T06:24:24.518Z,101052.66
2019-04-26T06:27:13.936Z,101063.72
2019-04-26T06:29:53.531Z,101069.51
2019-04-26T06:32:32.728Z,101076.61
2019-04-26T06:35:28.347Z,101085.95
2019-04-26T06:38:54.515Z,101089.33
2019-04-26T06:41:58.696Z,101099.04
2019-04-26T06:44:33.742Z,101111.48
2019-04-26T06:47:25.473Z,101121.69
2019-04-26T06:50:15.896Z,101123.03
2019-04-26T06:53:30.120Z,101126.99
2019-04-26T06:56:12.939Z,101134.95
2019-04-26T06:59:36.895Z,101146.69
2019-04-26T07:02:16.581Z,101152.85
2019-04-26T07:05:15.183Z,101162.09
2019-04-26T07:07:56.718Z,101155.44
2019-04-26T07:11:06.945Z,101163.81
2019-04-26T07:14:04.911Z,101171.89
2019-04-26T07:16:51.026Z,101165.64
2019-04-26T07:20:04.405Z,101165.09
2019-04-26T07:23:10.260Z,101160.95
2019-04-26T07:26:08.424Z,101161.43
2019-04-26T07:29:31.927Z,101159.15
2019-04-26T07:32:14.722Z,101157.31
2019-04-26T07:35:06.709Z,101160.88
2019-04-26T07:38:25.130Z,101156.34
2019-04-26T07:41:42.182Z,101144.73
2019-04-26T07:45:10.417Z,101149.55
2019-04-26T07:48:19.611Z,101151.38
2019-04-26T07:51:25.373Z,101159.91
2019-04-26T07:54:39.461Z,101169.25
2019-04-26T07:57:39.193Z,101177.25
2019-04-26T08:00:44.340Z,101176.28
2019-04-26T08:03:19.133Z,101160.13
2019-04-26T08:06:36.417Z,101149.30
2019-04-26T08:09:23.413Z,101134.87
2019-04-26T08:11:49.086Z,101124.89
2019-04-26T08:14:22.555Z,101127.02
2019-04-26T08:17:21.320Z,101126.05
2019-04-26T08:19:59.257Z,101135.78
2019-04-26T08:22:32.363Z,101149.53
2019-04-26T08:25:01.790Z,101171.86
2019-04-26T08:27:31.416Z,101200.49
2019-04-26T08:30:10.077Z,101214.36
2019-04-26T08:32:40.942Z,101227.34
2019-04-26T08:35:27.030Z,101229.17
2019-04-26T08:37:59.150Z,101225.51
2019-04-26T08:40:31.410Z,101227.27
2019-04-26T08:43:20.583Z,101226.78
2019-04-26T08:46:12.947Z,101220.91
2019-04-26T08:49:08.493Z,101221.62
2019-04-26T08:51:39.360Z,101218.94
2019-04-26T08:54:21.982Z,101218.83
2019-04-26T08:57:13.352Z,101222.48
2019-04-26T08:59:46.727Z,101228.25
2019-04-26T09:02:36.833Z,101226.42
2019-04-26T09:05:25.094Z,101217.00
2019-04-26T09:07:58.885Z,101215.66
2019-04-26T09:10:28.599Z,101214.79
2019-04-26T09:12:58.351Z,101212.09
2019-04-26T09:16:01.217Z,101210.67
2019-04-26T09:18:42.513Z,101211.16
2019-04-26T09:21:02.407Z,101207.98
2019-04-26T09:23:52.163Z,101207.98
2019-04-26T09:26:37.225Z,101209.70
2019-04-26T09:29:15.857Z,101215.27
2019-04-26T09:31:50.397Z,101219.69
2019-04-26T09:34:19.311Z,101230.94
2019-04-26T09:36:49.033Z,101223.73
2019-04-26T09:39:18.900Z,101228.66
2019-04-26T09:41:48.669Z,101224.22
2019-04-26T09:44:37.684Z,101220.17
2019-04-26T09:47:17.555Z,101209.81
2019-04-26T09:49:56.636Z,101208.47
2019-04-26T09:52:29.335Z,101206.64
2019-04-26T09:54:59.193Z,101209.33
2019-04-26T09:57:28.997Z,101214.23
2019-04-26T09:59:58.688Z,101219.13
2019-04-26T10:02:29.485Z,101218.75
2019-04-26T10:05:00.023Z,101225.00
2019-04-26T10:07:29.663Z,101212.95
2019-04-26T10:10:00.956Z,101218.75
2019-04-26T10:12:47.516Z,101213.85
2019-04-26T10:15:38.843Z,101213.85
2019-04-26T10:18:08.255Z,101202.60
2019-04-26T10:20:37.964Z,101199.98
2019-04-26T10:23:07.824Z,101203.09
2019-04-26T10:25:37.533Z,101206.16
2019-04-26T10:28:07.172Z,101206.16
2019-04-26T10:30:38.426Z,101206.72
2019-04-26T10:33:08.333Z,101204.88
2019-04-26T10:35:38.007Z,101205.78
2019-04-26T10:38:07.687Z,101204.80
2019-04-26T10:40:37.349Z,101205.67
2019-04-26T10:43:08.094Z,101204.43
2019-04-26T10:45:37.715Z,101214.30
2019-04-26T10:48:09.521Z,101211.72
2019-04-26T10:50:38.720Z,101207.68
2019-04-26T10:53:31.970Z,101214.00
2019-04-26T10:56:20.257Z,101216.31
2019-04-26T10:59:13.035Z,101217.73
2019-04-26T11:01:42.925Z,101218.22
2019-04-26T11:04:12.649Z,101216.50
2019-04-26T11:06:42.286Z,101215.16
2019-04-26T11:09:12.271Z,101210.14
2019-04-26T11:11:42.021Z,101210.14
2019-04-26T11:14:11.724Z,101217.36
2019-04-26T11:16:42.280Z,101219.19
2019-04-26T11:19:11.903Z,101217.36
2019-04-26T11:21:41.642Z,101219.67
2019-04-26T11:24:15.125Z,101225.05
2019-04-26T11:26:43.125Z,101218.78
2019-04-26T11:29:12.736Z,101215.70
2019-04-26T11:31:42.456Z,101208.50
2019-04-26T11:34:12.379Z,101225.51
2019-04-26T11:36:43.111Z,101224.64
2019-04-26T11:39:14.831Z,101222.36
2019-04-26T11:41:44.570Z,101220.13
2019-04-26T11:44:14.296Z,101222.81
2019-04-26T11:46:45.240Z,101230.44
2019-04-26T11:49:15.202Z,101226.41
2019-04-26T11:51:45.287Z,101235.83
2019-04-26T11:54:17.122Z,101230.03
2019-04-26T11:56:46.846Z,101238.11
2019-04-26T11:59:16.630Z,101230.03
2019-04-26T12:01:46.766Z,101239.86
2019-04-26T12:04:27.105Z,101238.97
2019-04-26T12:07:05.736Z,101238.59
2019-04-26T12:09:37.372Z,101238.59
2019-04-26T12:12:09.302Z,101240.72
2019-04-26T12:14:38.893Z,101240.80
2019-04-26T12:17:08.705Z,101243.90
2019-04-26T12:19:38.374Z,101233.13
2019-04-26T12:22:09.602Z,101238.03
2019-04-26T12:24:39.537Z,101228.12
2019-04-26T12:27:10.369Z,101235.83
2019-04-26T12:29:40.371Z,101240.72
2019-04-26T12:32:10.092Z,101236.20
2019-04-26T12:34:39.789Z,101232.23
2019-04-26T12:37:12.589Z,101232.72
2019-04-26T12:39:40.714Z,101238.11
2019-04-26T12:42:12.386Z,101253.77
2019-04-26T12:44:56.595Z,101248.88
2019-04-26T12:47:34.521Z,101257.81
2019-04-26T12:50:02.982Z,101254.25
2019-04-26T12:52:32.708Z,101249.73
2019-04-26T12:55:02.697Z,101259.16
2019-04-26T12:57:32.402Z,101254.73
2019-04-26T13:00:03.552Z,101266.30
2019-04-26T13:02:33.276Z,101263.19
2019-04-26T13:05:02.967Z,101261.84
2019-04-26T13:07:32.609Z,101267.23
2019-04-26T13:10:12.930Z,101272.61
2019-04-26T13:12:50.710Z,101271.27
2019-04-26T13:16:12.436Z,101269.55
2019-04-26T13:18:45.306Z,101264.09
2019-04-26T13:21:13.506Z,101272.16
2019-04-26T13:23:43.327Z,101272.16
2019-04-26T13:26:12.940Z,101272.61
2019-04-26T13:28:42.639Z,101267.23
2019-04-26T13:31:12.277Z,101274.45
2019-04-26T13:33:41.963Z,101271.27
2019-04-26T13:36:11.804Z,101269.47
2019-04-26T13:38:43.457Z,101271.27
2019-04-26T13:41:13.222Z,101273.09
2019-04-26T13:44:05.663Z,101270.33
2019-04-26T13:46:50.832Z,101275.31
2019-04-26T13:49:28.908Z,101278.00
2019-04-26T13:51:58.817Z,101274.93
2019-04-26T13:54:29.158Z,101277.14
2019-04-26T13:56:58.791Z,101274.52
2019-04-26T13:59:31.696Z,101278.97
2019-04-26T14:02:10.964Z,101283.00
2019-04-26T14:04:31.377Z,101274.45
2019-04-26T14:07:01.149Z,101276.27
2019-04-26T14:09:30.745Z,101274.93
2019-04-26T14:12:03.316Z,101273.51
2019-04-26T14:14:34.137Z,101272.61
2019-04-26T14:17:03.047Z,101268.58
2019-04-26T14:19:32.858Z,101276.66
2019-04-26T14:22:03.187Z,101269.92
2019-04-26T14:24:47.905Z,101267.72
2019-04-26T14:27:20.929Z,101266.38
2019-04-26T14:29:50.658Z,101263.19
2019-04-26T14:32:22.991Z,101259.27
2019-04-26T14:34:51.778Z,101259.16
2019-04-26T14:37:21.480Z,101256.95
2019-04-26T14:39:54.994Z,101255.12
2019-04-26T14:42:33.522Z,101257.44
2019-04-26T14:44:54.912Z,101254.67
2019-04-26T14:47:26.362Z,101248.39
2019-04-26T14:49:57.777Z,101250.22
2019-04-26T14:52:28.787Z,101247.45
2019-04-26T14:54:58.681Z,101247.53
2019-04-26T14:57:31.451Z,101248.80
2019-04-26T15:00:00.270Z,101251.08
2019-04-26T15:02:47.447Z,101256.87
2019-04-26T15:05:27.762Z,101261.39
2019-04-26T15:07:57.500Z,101256.02
2019-04-26T15:10:43.448Z,101247.45
2019-04-26T15:13:17.371Z,101254.67
2019-04-26T15:15:37.838Z,101248.39
2019-04-26T15:18:07.822Z,101249.28
2019-04-26T15:20:37.840Z,101245.25
2019-04-26T15:23:07.950Z,101247.05
2019-04-26T15:25:41.359Z,101237.17
2019-04-26T15:28:12.047Z,101242.07
2019-04-26T15:30:46.417Z,101229.09
2019-04-26T15:33:12.664Z,101242.07
2019-04-26T15:35:44.362Z,101241.20
2019-04-26T15:38:14.079Z,101241.20
2019-04-26T15:41:05.380Z,101244.77
2019-04-26T15:43:59.372Z,101240.31
2019-04-26T15:46:42.572Z,101241.20
2019-04-26T15:49:37.707Z,101239.86
2019-04-26T15:52:07.446Z,101244.28
2019-04-26T15:54:37.097Z,101255.12
2019-04-26T15:57:07.165Z,101247.53
2019-04-26T15:59:36.900Z,101241.66
2019-04-26T16:02:06.637Z,101240.31
2019-04-26T16:04:36.774Z,101245.70
2019-04-26T16:07:06.394Z,101243.90
2019-04-26T16:09:36.097Z,101244.45
2019-04-26T16:12:05.727Z,101245.70
2019-04-26T16:14:37.004Z,101251.56
2019-04-26T16:17:07.233Z,101243.48
2019-04-26T16:19:36.974Z,101240.42
2019-04-26T16:22:07.174Z,101248.02
2019-04-26T16:24:36.933Z,101250.22
2019-04-26T16:27:06.754Z,101246.66
2019-04-26T16:29:50.995Z,101254.67
2019-04-26T16:32:47.363Z,101256.57
2019-04-26T16:35:18.387Z,101252.05
2019-04-26T16:37:48.384Z,101254.81
2019-04-26T16:40:18.478Z,101254.33
2019-04-26T16:42:49.596Z,101257.50
2019-04-26T16:45:19.663Z,101259.82
2019-04-26T16:47:49.294Z,101264.23
2019-04-26T16:50:23.256Z,101261.05
2019-04-26T16:52:50.363Z,101255.78
2019-04-26T16:55:21.311Z,101260.67
2019-04-26T16:57:55.624Z,101261.16
2019-04-26T17:00:51.748Z,101253.95
2019-04-26T17:03:30.688Z,101258.85
2019-04-26T17:06:06.741Z,101253.16
2019-04-26T17:08:33.499Z,101258.55
2019-04-26T17:11:22.879Z,101252.60
2019-04-26T17:13:56.918Z,101261.64
2019-04-26T17:16:25.721Z,101255.37
2019-04-26T17:18:59.145Z,101257.13
2019-04-26T17:21:28.877Z,101253.95
2019-04-26T17:24:16.278Z,101247.70
2019-04-26T17:26:49.435Z,101248.19
2019-04-26T17:29:19.230Z,101252.60
2019-04-26T17:31:48.955Z,101245.95
2019-04-26T17:34:22.541Z,101249.53
2019-04-26T17:36:51.857Z,101253.16
2019-04-26T17:39:22.619Z,101255.37
2019-04-26T17:41:54.220Z,101250.47
2019-04-26T17:44:26.718Z,101252.67
2019-04-26T17:46:56.894Z,101253.95
2019-04-26T17:49:28.773Z,101259.41
2019-04-26T17:51:59.878Z,101253.64
2019-04-26T17:54:43.806Z,101255.37
2019-04-26T17:57:04.209Z,101249.98
2019-04-26T17:59:34.593Z,101243.74
2019-04-26T18:02:03.909Z,101254.02
2019-04-26T18:04:37.399Z,101253.64
2019-04-26T18:07:33.356Z,101259.41
2019-04-26T18:09:44.698Z,101254.98
2019-04-26T18:12:07.772Z,101255.85
2019-04-26T18:14:37.695Z,101251.44
2019-04-26T18:17:15.564Z,101259.52
2019-04-26T18:20:07.953Z,101264.03
2019-04-26T18:22:40.870Z,101259.89
2019-04-26T18:25:12.560Z,101256.82
2019-04-26T18:27:43.523Z,101259.52
2019-04-26T18:30:14.295Z,101261.72
2019-04-26T18:32:47.798Z,101264.89
2019-04-26T18:35:16.914Z,101267.17
2019-04-26T18:37:46.696Z,101272.18
2019-04-26T18:40:16.317Z,101266.73
2019-04-26T18:42:46.074Z,101268.52
2019-04-26T18:45:21.182Z,101265.94
2019-04-26T18:47:47.368Z,101267.77
2019-04-26T18:50:18.632Z,101267.77
2019-04-26T18:53:15.881Z,101267.34
2019-04-26T18:55:46.239Z,101274.56
2019-04-26T18:58:15.873Z,101272.73
2019-04-26T19:00:45.715Z,101274.08
2019-04-26T19:03:16.062Z,101276.47
2019-04-26T19:05:46.351Z,101285.81
2019-04-26T19:08:15.997Z,101286.75
2019-04-26T19:10:58.031Z,101288.98
2019-04-26T19:13:45.217Z,101295.30
2019-04-26T19:16:56.854Z,101301.55
2019-04-26T19:19:31.518Z,101299.83
2019-04-26T19:22:03.415Z,101305.69
2019-04-26T19:24:33.892Z,101311.07
2019-04-26T19:27:05.326Z,101315.59
2019-04-26T19:29:36.224Z,101315.18
2019-04-26T19:32:06.607Z,101312.42
2019-04-26T19:34:36.211Z,101310.66
2019-04-26T19:37:06.039Z,101309.42
2019-04-26T19:39:35.920Z,101317.88
2019-04-26T19:42:06.303Z,101313.83
2019-04-26T19:44:36.032Z,101314.38
2019-04-26T19:47:15.780Z,101314.48
2019-04-26T19:50:09.814Z,101314.00
2019-04-26T19:52:46.991Z,101315.84
2019-04-26T19:55:36.074Z,101310.94
2019-04-26T19:58:09.570Z,101309.97
2019-04-26T20:00:43.401Z,101308.24
2019-04-26T20:03:13.485Z,101309.66
2019-04-26T20:05:44.168Z,101305.69
2019-04-26T20:08:13.788Z,101308.80
2019-04-26T20:10:45.826Z,101307.45
2019-04-26T20:13:16.258Z,101311.00
2019-04-26T20:15:46.571Z,101311.48
2019-04-26T20:18:17.566Z,101310.59
2019-04-26T20:20:47.505Z,101311.56
2019-04-26T20:23:19.450Z,101312.42
2019-04-26T20:25:48.775Z,101309.73
2019-04-26T20:28:18.824Z,101315.59
2019-04-26T20:31:05.931Z,101310.70
2019-04-26T20:33:34.983Z,101311.63
2019-04-26T20:36:04.866Z,101311.63
2019-04-26T20:38:42.875Z,101310.70
2019-04-26T20:41:06.352Z,101303.55
2019-04-26T20:43:43.762Z,101312.97
2019-04-26T20:46:14.580Z,101302.21
2019-04-26T20:48:39.176Z,101310.77
2019-04-26T20:51:10.902Z,101304.91
2019-04-26T20:53:43.454Z,101300.48
2019-04-26T20:56:18.320Z,101302.21
2019-04-26T20:58:46.966Z,101294.23
2019-04-26T21:01:15.800Z,101295.59
2019-04-26T21:03:46.094Z,101296.07
2019-04-26T21:06:15.883Z,101301.45
2019-04-26T21:08:45.526Z,101298.27
2019-04-26T21:11:15.216Z,101290.27
2019-04-26T21:13:44.906Z,101290.27
2019-04-26T21:16:15.646Z,101294.80
2019-04-26T21:18:45.464Z,101293.52
2019-04-26T21:21:16.410Z,101292.97
2019-04-26T21:23:48.320Z,101286.79
2019-04-26T21:26:37.199Z,101285.38
2019-04-26T21:29:28.702Z,101283.17
2019-04-26T21:32:04.874Z,101284.52
2019-04-26T21:34:36.615Z,101284.52
2019-04-26T21:37:22.492Z,101278.34
2019-04-26T21:40:10.783Z,101274.30
2019-04-26T21:42:43.376Z,101288.14
2019-04-26T21:45:11.961Z,101274.30
2019-04-26T21:47:43.373Z,101276.03
2019-04-26T21:50:13.630Z,101282.86
2019-04-26T21:52:45.603Z,101276.99
2019-04-26T21:55:16.676Z,101276.99
2019-04-26T21:57:46.666Z,101272.47
2019-04-26T22:00:29.117Z,101276.61
2019-04-26T22:02:58.784Z,101269.41
2019-04-26T22:05:28.538Z,101264.09
2019-04-26T22:07:58.210Z,101254.30
2019-04-26T22:10:39.556Z,101256.02
2019-04-26T22:13:10.937Z,101251.13
2019-04-26T22:15:59.595Z,101253.88
2019-04-26T22:18:44.010Z,101255.23
2019-04-26T22:21:21.664Z,101249.41
2019-04-26T22:24:03.658Z,101245.37
2019-04-26T22:26:34.032Z,101238.64
2019-04-26T22:29:04.012Z,101232.36
2019-04-26T22:31:33.831Z,101229.67
2019-04-26T22:34:07.561Z,101225.26
2019-04-26T22:36:35.766Z,101219.02
2019-04-26T22:39:10.381Z,101226.13
2019-04-26T22:41:40.014Z,101224.30
2019-04-26T22:44:15.100Z,101218.61
2019-04-26T22:47:06.818Z,101215.91
2019-04-26T22:49:41.722Z,101210.16
2019-04-26T22:52:11.266Z,101216.02
2019-04-26T22:54:42.804Z,101209.67
2019-04-26T22:57:13.167Z,101212.36
2019-04-26T22:59:49.529Z,101207.95
2019-04-26T23:02:18.469Z,101199.44
2019-04-26T23:04:46.915Z,101204.81
2019-04-26T23:07:18.380Z,101205.70
2019-04-26T23:09:51.980Z,101202.61
2019-04-26T23:12:37.434Z,101201.26
2019-04-26T23:15:43.148Z,101202.13
2019-04-26T23:18:33.448Z,101199.98
2019-04-26T23:21:07.766Z,101195.50
2019-04-26T23:23:40.966Z,101199.13
2019-04-26T23:26:09.504Z,101202.30
2019-04-26T23:28:39.196Z,101204.02
2019-04-26T23:31:09.225Z,101192.88
2019-04-26T23:33:38.928Z,101183.09
2019-04-26T23:36:08.963Z,101178.09
2019-04-26T23:38:38.632Z,101174.12
2019-04-26T23:41:08.235Z,101181.27
2019-04-26T23:43:38.250Z,101172.33
2019-04-26T23:46:07.906Z,101171.92
2019-04-26T23:48:37.704Z,101169.71
2019-04-26T23:51:08.463Z,101172.89
2019-04-26T23:53:38.139Z,101162.61
2019-04-26T23:56:07.745Z,101160.78
2019-04-26T23:58:40.303Z,101172.89
